Time;durP1;ratioP1;P1;durP2;ratioP2;P2;SDS_P1;SDS_P2;PMS_P1;PMS_P2;Temp;Humidity;BMP_temperature;BMP_pressure;BME280_temperature;BME280_humidity;BME280_pressure;Samples;Min_cycle;Max_cycle;Signal;HPM_P1;HPM_P2
2023/12/08 00:00:38;;;;;;;78.28;35.88;;;;;;;0.54;91.58;101332.41;4953310;28;20114;-71
2023/12/08 00:03:04;;;;;;;80.07;34.97;;;;;;;0.33;92.69;101327.88;4953548;28;20098;-71
2023/12/08 00:05:31;;;;;;;87.90;36.15;;;;;;;0.23;92.92;101321.13;4954177;28;20050;-72
2023/12/08 00:07:58;;;;;;;76.50;35.63;;;;;;;0.05;93.91;101328.84;4953267;28;20047;-71
2023/12/08 00:10:24;;;;;;;87.22;36.58;;;;;;;0.18;94.27;101325.75;4953750;28;20075;-73
2023/12/08 00:12:51;;;;;;;85.82;38.03;;;;;;;0.01;94.16;101321.88;4953380;28;20468;-72
2023/12/08 00:15:18;;;;;;;84.30;35.63;;;;;;;-0.14;95.05;101322.41;4953370;28;20043;-71
2023/12/08 00:17:45;;;;;;;94.43;37.28;;;;;;;-0.08;95.26;101326.66;4953361;28;20061;-70
2023/12/08 00:20:12;;;;;;;86.72;37.40;;;;;;;-0.01;94.97;101323.72;4953235;28;20122;-70
2023/12/08 00:22:40;;;;;;;99.10;40.75;;;;;;;-0.06;94.72;101319.50;4953037;28;20059;-70
2023/12/08 00:25:07;;;;;;;96.82;39.15;;;;;;;-0.01;95.10;101317.50;4953619;28;20098;-70
2023/12/08 00:27:35;;;;;;;91.18;39.63;;;;;;;0.11;93.90;101317.94;4953244;28;20102;-70
2023/12/08 00:30:03;;;;;;;96.97;39.63;;;;;;;-0.06;94.90;101309.69;4953405;28;20047;-70
2023/12/08 00:32:29;;;;;;;99.38;41.53;;;;;;;0.16;94.43;101308.94;4953369;28;20049;-70
2023/12/08 00:34:56;;;;;;;94.32;39.42;;;;;;;0.33;93.54;101306.53;4952616;28;20411;-70
2023/12/08 00:37:25;;;;;;;103.07;42.33;;;;;;;0.08;93.46;101318.06;4953132;28;20507;-70
2023/12/08 00:39:52;;;;;;;94.40;40.33;;;;;;;0.11;94.24;101317.94;4952721;28;20497;-70
2023/12/08 00:42:19;;;;;;;100.25;42.05;;;;;;;-0.02;93.86;101318.44;4953633;28;20468;-70
2023/12/08 00:44:46;;;;;;;95.15;39.20;;;;;;;0.24;94.05;101312.19;4951257;28;20055;-70
2023/12/08 00:47:12;;;;;;;99.80;41.38;;;;;;;0.19;94.01;101308.81;4953276;28;20047;-70
2023/12/08 00:49:39;;;;;;;98.93;40.72;;;;;;;0.34;93.55;101305.59;4953011;28;20047;-70
2023/12/08 00:52:05;;;;;;;98.40;41.28;;;;;;;0.28;93.48;101308.47;4953225;28;20095;-70
2023/12/08 00:54:32;;;;;;;102.70;43.53;;;;;;;0.32;93.09;101304.78;4939002;28;20052;-70
2023/12/08 00:56:59;;;;;;;99.22;42.60;;;;;;;0.31;93.15;101295.91;4933934;28;20453;-70
2023/12/08 00:59:26;;;;;;;100.00;43.45;;;;;;;0.05;94.20;101296.84;4934006;28;20051;-70
2023/12/08 01:01:53;;;;;;;111.70;44.40;;;;;;;0.02;94.57;101291.59;4933589;28;20055;-70
2023/12/08 01:04:19;;;;;;;103.15;42.38;;;;;;;0.01;94.22;101291.66;4933723;28;20046;-70
2023/12/08 01:06:46;;;;;;;109.70;45.72;;;;;;;-0.13;94.81;101297.50;4933673;28;20059;-70
2023/12/08 01:09:14;;;;;;;113.63;43.22;;;;;;;-0.10;94.90;101293.84;4933998;28;20052;-70
2023/12/08 01:11:41;;;;;;;118.55;44.13;;;;;;;-0.06;95.09;101293.69;4933673;28;20071;-70
2023/12/08 01:14:08;;;;;;;110.47;44.80;;;;;;;0.06;94.69;101298.59;4934153;28;20412;-70
2023/12/08 01:16:40;;;;;;;105.95;46.72;;;;;;;0.25;94.49;101289.94;4933259;28;20492;-71
2023/12/08 01:19:08;;;;;;;114.18;46.25;;;;;;;0.36;93.66;101291.25;4933450;28;20055;-70
2023/12/08 01:21:38;;;;;;;103.57;43.47;;;;;;;0.32;93.29;101291.44;4933785;28;20127;-70
2023/12/08 01:24:06;;;;;;;109.20;45.20;;;;;;;0.40;93.68;101286.69;4933885;28;20134;-70
2023/12/08 01:26:33;;;;;;;105.45;43.17;;;;;;;0.48;92.74;101289.06;4934463;28;20471;-70
2023/12/08 01:29:00;;;;;;;106.10;44.72;;;;;;;0.49;92.67;101281.03;4933751;28;20040;-69
2023/12/08 01:31:26;;;;;;;111.80;45.45;;;;;;;0.52;92.48;101286.22;4933417;28;20076;-70
2023/12/08 01:33:53;;;;;;;99.55;42.25;;;;;;;0.50;92.04;101281.91;4933666;28;20048;-70
2023/12/08 01:36:20;;;;;;;96.95;42.72;;;;;;;0.11;93.12;101280.59;4933214;28;20052;-70
2023/12/08 01:39:09;;;;;;;98.85;40.38;;;;;;;0.23;93.57;101271.31;4933484;28;20044;-70
2023/12/08 01:41:36;;;;;;;94.85;39.33;;;;;;;0.28;92.77;101271.13;4933192;28;20514;-70
2023/12/08 01:44:03;;;;;;;103.32;41.38;;;;;;;0.51;92.37;101263.16;4933967;28;20052;-70
2023/12/08 01:46:30;;;;;;;105.15;40.78;;;;;;;0.18;93.11;101259.06;4918315;28;20044;-69
2023/12/08 01:48:57;;;;;;;103.90;42.45;;;;;;;0.27;93.28;101253.38;4914254;29;20044;-70
2023/12/08 01:51:25;;;;;;;95.90;40.30;;;;;;;0.37;93.00;101254.78;4914068;29;20079;-69
2023/12/08 01:53:52;;;;;;;102.45;39.95;;;;;;;0.48;93.01;101260.56;4922171;29;20044;-69
2023/12/08 01:56:18;;;;;;;98.53;40.60;;;;;;;0.49;91.82;101256.09;4932933;29;20560;-69
2023/12/08 01:58:45;;;;;;;98.60;40.55;;;;;;;0.33;92.23;101258.50;4936441;29;20115;-69
2023/12/08 02:01:12;;;;;;;103.82;40.80;;;;;;;0.08;93.54;101263.84;4936821;29;20048;-69
2023/12/08 02:03:40;;;;;;;99.07;40.53;;;;;;;-0.13;94.49;101248.63;4936571;29;20127;-69
2023/12/08 02:09:49;;;;;;;102.47;40.58;;;;;;;-0.13;94.83;101244.16;4935847;28;20059;-69
2023/12/08 02:12:16;;;;;;;102.35;39.28;;;;;;;-0.03;94.35;101242.91;4935426;28;20106;-69
2023/12/08 02:14:42;;;;;;;101.72;40.38;;;;;;;0.08;94.20;101250.53;4935033;28;20127;-69
2023/12/08 02:17:15;;;;;;;106.97;41.05;;;;;;;0.18;93.87;101248.38;4935526;28;20568;-69
2023/12/08 02:19:43;;;;;;;104.38;40.80;;;;;;;0.36;93.56;101234.34;4934514;28;20493;-69
2023/12/08 02:22:10;;;;;;;113.10;40.75;;;;;;;0.26;93.12;101230.31;4935252;28;20059;-69
2023/12/08 02:24:36;;;;;;;107.15;40.45;;;;;;;0.24;93.40;101235.69;4934933;28;20048;-69
2023/12/08 02:27:04;;;;;;;112.32;41.65;;;;;;;0.23;93.78;101227.75;4934928;28;20485;-69
2023/12/08 02:29:31;;;;;;;118.95;43.75;;;;;;;0.03;94.04;101218.69;4935097;28;20103;-69
2023/12/08 02:32:12;;;;;;;107.93;43.03;;;;;;;-0.06;94.50;101211.03;4934118;28;20500;-69
2023/12/08 02:34:41;;;;;;;124.25;44.05;;;;;;;-0.04;94.50;101211.84;4934655;28;20102;-69
2023/12/08 02:37:08;;;;;;;113.35;42.45;;;;;;;0.16;94.93;101216.44;4935753;28;20147;-67
2023/12/08 02:39:36;;;;;;;121.68;43.42;;;;;;;0.09;94.46;101217.59;4945516;28;20468;-67
2023/12/08 02:42:03;;;;;;;113.90;43.70;;;;;;;0.07;94.47;101217.66;4945702;28;20568;-67
2023/12/08 02:44:30;;;;;;;118.75;44.60;;;;;;;0.18;94.69;101219.03;4944479;28;20059;-67
2023/12/08 02:46:57;;;;;;;115.00;42.25;;;;;;;0.18;93.92;101208.38;4944927;28;20489;-67
2023/12/08 02:49:23;;;;;;;118.38;44.92;;;;;;;0.37;93.78;101206.75;4944851;28;20047;-67
2023/12/08 02:51:50;;;;;;;124.97;43.95;;;;;;;0.33;93.34;101207.81;4944865;28;20078;-67
2023/12/08 02:54:17;;;;;;;120.38;42.45;;;;;;;0.43;93.10;101190.50;4933134;28;20044;-67
2023/12/08 02:56:46;;;;;;;112.80;43.65;;;;;;;0.50;92.70;101193.81;4924863;29;20044;-71
2023/12/08 02:59:12;;;;;;;111.22;43.35;;;;;;;0.08;93.88;101195.38;4915330;29;20474;-71
2023/12/08 03:01:39;;;;;;;118.07;45.17;;;;;;;0.18;94.26;101189.69;4915372;29;20470;-71
2023/12/08 03:04:06;;;;;;;109.00;42.42;;;;;;;0.32;93.47;101182.06;4915797;29;20052;-71
2023/12/08 03:06:32;;;;;;;113.20;42.13;;;;;;;0.26;93.55;101183.16;4915664;29;20041;-71
2023/12/08 03:08:59;;;;;;;116.82;43.58;;;;;;;0.36;93.25;101183.66;4913898;29;20040;-71
2023/12/08 03:11:26;;;;;;;116.38;44.83;;;;;;;0.27;93.61;101190.22;4915466;29;20052;-71
2023/12/08 03:13:52;;;;;;;116.15;42.30;;;;;;;0.21;93.69;101187.81;4915523;29;20127;-71
2023/12/08 03:16:19;;;;;;;111.18;42.38;;;;;;;0.40;93.58;101178.16;4916172;29;20058;-71
2023/12/08 03:18:46;;;;;;;107.90;41.60;;;;;;;0.45;93.00;101185.97;4915053;29;20044;-71
2023/12/08 03:21:23;;;;;;;112.95;43.65;;;;;;;0.32;93.01;101166.03;4915517;29;20048;-71
2023/12/08 03:23:51;;;;;;;112.82;44.08;;;;;;;0.11;94.07;101168.59;4914924;29;20056;-71
2023/12/08 03:26:18;;;;;;;108.28;43.28;;;;;;;0.16;93.92;101178.22;4915181;29;20083;-71
2023/12/08 03:28:46;;;;;;;114.22;43.53;;;;;;;0.35;93.89;101166.78;4914771;29;20052;-72
2023/12/08 03:31:30;;;;;;;105.72;42.33;;;;;;;0.24;94.28;101163.66;4914799;29;20485;-71
2023/12/08 03:33:57;;;;;;;106.15;42.80;;;;;;;0.40;93.86;101148.81;4914756;29;20063;-71
2023/12/08 03:36:24;;;;;;;112.60;42.67;;;;;;;0.31;92.94;101153.66;4915184;29;20072;-71
2023/12/08 03:38:51;;;;;;;112.68;45.00;;;;;;;0.18;93.37;101155.03;4915124;29;20076;-69
2023/12/08 03:41:18;;;;;;;112.78;44.38;;;;;;;0.20;94.09;101150.50;4914744;29;20394;-71
2023/12/08 03:43:46;;;;;;;110.95;43.40;;;;;;;0.14;94.04;101157.81;4914453;29;20508;-71
2023/12/08 03:46:13;;;;;;;109.28;44.85;;;;;;;0.20;94.14;101145.16;4915058;29;20123;-72
2023/12/08 03:48:40;;;;;;;114.93;44.65;;;;;;;0.45;93.35;101140.59;4914787;29;20111;-71
2023/12/08 03:51:07;;;;;;;113.68;45.58;;;;;;;0.35;92.91;101144.56;4932280;29;20047;-71
2023/12/08 03:53:34;;;;;;;110.40;44.88;;;;;;;0.35;93.32;101139.25;4939447;28;20460;-71
2023/12/08 03:56:01;;;;;;;106.43;44.13;;;;;;;0.56;92.88;101138.38;4952727;28;20134;-71
2023/12/08 03:58:28;;;;;;;112.40;43.83;;;;;;;0.58;92.47;101136.53;4952757;28;20179;-71
2023/12/08 04:00:54;;;;;;;106.45;43.97;;;;;;;0.61;92.38;101131.06;4952582;28;20051;-71
2023/12/08 04:03:22;;;;;;;106.20;46.20;;;;;;;0.62;91.76;101127.47;4951916;28;20047;-69
2023/12/08 04:05:48;;;;;;;102.53;43.30;;;;;;;0.78;91.38;101126.84;4952593;28;20200;-71
2023/12/08 04:08:16;;;;;;;102.60;43.17;;;;;;;0.50;92.57;101122.63;4951539;28;20073;-72
2023/12/08 04:10:43;;;;;;;102.00;43.30;;;;;;;0.51;92.49;101129.69;4952441;28;20066;-71
2023/12/08 04:13:10;;;;;;;99.18;41.60;;;;;;;0.66;92.06;101118.38;4951945;28;20047;-71
2023/12/08 04:15:37;;;;;;;104.50;42.63;;;;;;;0.37;92.25;101114.22;4952085;28;20385;-71
2023/12/08 04:18:03;;;;;;;104.50;43.30;;;;;;;0.36;93.09;101114.28;4951664;28;20044;-71
2023/12/08 04:20:31;;;;;;;108.65;43.13;;;;;;;0.20;93.47;101107.81;4951546;28;20464;-71
2023/12/08 04:22:57;;;;;;;101.30;40.30;;;;;;;0.38;92.90;101099.94;4951617;28;20047;-70
2023/12/08 04:25:25;;;;;;;95.45;41.35;;;;;;;0.29;93.78;101086.97;4950682;28;20500;-71
2023/12/08 04:27:51;;;;;;;101.18;42.20;;;;;;;0.39;92.94;101080.34;4951403;28;20492;-70
2023/12/08 04:30:20;;;;;;;103.68;41.00;;;;;;;0.32;92.88;101070.00;4952929;28;20385;-71
2023/12/08 04:32:47;;;;;;;103.15;42.38;;;;;;;0.32;93.12;101080.66;4951383;28;20043;-71
2023/12/08 04:35:13;;;;;;;101.47;40.97;;;;;;;0.17;93.33;101062.59;4951714;28;20082;-71
2023/12/08 04:37:40;;;;;;;97.10;41.03;;;;;;;0.10;93.67;101053.97;4951832;28;20101;-71
2023/12/08 04:40:07;;;;;;;100.55;40.47;;;;;;;0.11;93.72;101048.56;4951741;28;20099;-71
2023/12/08 04:42:36;;;;;;;90.68;39.85;;;;;;;0.12;93.89;101039.66;4951455;28;20415;-71
2023/12/08 04:45:07;;;;;;;98.95;41.20;;;;;;;0.05;93.70;101040.81;4951844;28;20460;-71
2023/12/08 04:47:34;;;;;;;107.82;43.53;;;;;;;0.21;93.86;101045.53;4951439;28;20054;-71
2023/12/08 04:50:01;;;;;;;105.95;41.80;;;;;;;0.26;93.21;101043.56;4952128;28;20483;-71
2023/12/08 04:52:28;;;;;;;98.05;42.95;;;;;;;0.41;92.69;101048.28;4951393;28;20500;-72
2023/12/08 04:54:55;;;;;;;94.72;39.47;;;;;;;0.21;92.58;101038.44;4934062;28;20452;-70
2023/12/08 04:57:22;;;;;;;92.25;42.00;;;;;;;0.29;93.50;101043.44;4932363;28;20048;-69
2023/12/08 04:59:48;;;;;;;94.68;40.70;;;;;;;0.48;92.23;101049.75;4933520;28;20062;-68
2023/12/08 05:02:15;;;;;;;97.15;42.30;;;;;;;0.36;92.31;101056.47;4932395;28;20503;-69
2023/12/08 05:04:42;;;;;;;94.15;41.08;;;;;;;0.37;91.66;101055.53;4933407;28;20496;-69
2023/12/08 05:07:09;;;;;;;88.75;40.15;;;;;;;0.37;92.01;101057.31;4933814;28;20059;-68
2023/12/08 05:09:36;;;;;;;91.53;39.85;;;;;;;0.34;92.53;101062.78;4933729;28;20099;-68
2023/12/08 05:12:02;;;;;;;101.15;41.60;;;;;;;-0.05;93.88;101066.13;4933828;28;20560;-68
2023/12/08 05:14:30;;;;;;;97.18;41.90;;;;;;;-0.05;93.96;101066.13;4933852;28;20047;-69
2023/12/08 05:16:57;;;;;;;99.93;42.15;;;;;;;0.05;93.71;101064.81;4933643;28;20107;-68
2023/12/08 05:19:23;;;;;;;99.65;43.03;;;;;;;0.22;93.07;101063.31;4933948;28;20449;-68
2023/12/08 05:21:50;;;;;;;93.13;40.30;;;;;;;0.33;92.86;101055.72;4933736;28;20158;-68
2023/12/08 05:24:16;;;;;;;97.53;41.83;;;;;;;0.07;92.86;101062.09;4934107;28;20131;-68
2023/12/08 05:26:43;;;;;;;90.10;40.90;;;;;;;0.06;93.21;101074.56;4933291;28;20050;-69
2023/12/08 05:29:10;;;;;;;93.05;41.60;;;;;;;0.19;93.13;101074.94;4933371;28;20050;-69
2023/12/08 05:31:36;;;;;;;90.93;41.13;;;;;;;0.12;92.35;101078.81;4935673;28;20078;-69
2023/12/08 05:34:03;;;;;;;95.25;39.92;;;;;;;0.10;93.38;101069.97;4937428;28;20051;-69
2023/12/08 05:36:30;;;;;;;94.38;41.70;;;;;;;0.38;92.81;101059.06;4937363;28;20055;-68
2023/12/08 05:38:57;;;;;;;91.47;41.50;;;;;;;0.13;93.28;101064.53;4937171;28;20044;-69
2023/12/08 05:41:24;;;;;;;94.88;41.60;;;;;;;0.30;92.64;101066.50;4937348;28;20127;-69
2023/12/08 05:43:51;;;;;;;89.85;40.17;;;;;;;0.20;92.23;101063.34;4937579;28;20122;-68
2023/12/08 05:46:18;;;;;;;88.90;38.50;;;;;;;0.22;92.40;101060.63;4937225;28;20498;-69
2023/12/08 05:48:44;;;;;;;92.70;39.17;;;;;;;0.23;92.50;101055.22;4936764;28;20115;-68
2023/12/08 05:51:11;;;;;;;92.22;40.17;;;;;;;0.01;92.87;101055.19;4937341;28;20055;-69
2023/12/08 05:53:38;;;;;;;84.38;38.47;;;;;;;-0.13;93.55;101052.22;4936606;28;20553;-68
2023/12/08 05:56:06;;;;;;;93.63;41.22;;;;;;;-0.04;93.60;101056.31;4936816;28;20051;-69
2023/12/08 05:58:33;;;;;;;93.25;41.20;;;;;;;0.07;92.85;101067.44;4937316;28;20048;-69
2023/12/08 06:00:59;;;;;;;92.70;40.85;;;;;;;-0.05;93.04;101071.44;4937039;28;20044;-68
2023/12/08 06:03:26;;;;;;;93.40;41.05;;;;;;;-0.12;93.62;101058.41;4936753;28;20540;-68
2023/12/08 06:05:53;;;;;;;96.35;41.15;;;;;;;-0.10;93.45;101060.09;4936694;28;20047;-69
2023/12/08 06:08:20;;;;;;;92.55;39.58;;;;;;;-0.04;93.39;101051.84;4937245;28;20051;-69
2023/12/08 06:10:46;;;;;;;85.43;38.95;;;;;;;0.07;92.79;101057.63;4936457;28;20103;-68
2023/12/08 06:13:13;;;;;;;88.88;39.72;;;;;;;-0.02;92.96;101065.13;4936570;28;20051;-68
2023/12/08 06:15:40;;;;;;;90.15;39.40;;;;;;;-0.03;93.05;101061.59;4936605;28;20055;-69
2023/12/08 06:18:06;;;;;;;92.07;38.85;;;;;;;-0.17;93.23;101063.91;4936423;28;20504;-69
2023/12/08 06:20:33;;;;;;;94.80;41.40;;;;;;;-0.20;93.75;101061.38;4936101;28;20469;-69
2023/12/08 06:23:00;;;;;;;97.75;40.55;;;;;;;0.06;93.47;101055.03;4935965;28;20067;-69
2023/12/08 06:25:27;;;;;;;90.53;39.63;;;;;;;0.03;93.49;101049.81;4936258;28;20054;-69
2023/12/08 06:27:53;;;;;;;95.50;40.22;;;;;;;0.18;92.20;101035.00;4935842;28;20051;-69
2023/12/08 06:30:20;;;;;;;91.68;40.22;;;;;;;0.04;92.67;101032.91;4936849;28;20087;-68
2023/12/08 06:32:47;;;;;;;93.40;39.70;;;;;;;0.09;92.49;101030.91;4936129;28;20150;-68
2023/12/08 06:35:13;;;;;;;99.72;41.90;;;;;;;-0.01;92.59;101041.06;4936124;28;20047;-69
2023/12/08 06:37:40;;;;;;;89.15;39.83;;;;;;;-0.08;92.72;101034.22;4936026;28;20043;-69
2023/12/08 06:40:07;;;;;;;91.68;40.53;;;;;;;0.18;92.51;101029.66;4935034;28;20118;-69
2023/12/08 06:42:34;;;;;;;89.20;40.10;;;;;;;0.12;92.49;101029.00;4934619;28;20044;-70
2023/12/08 06:45:02;;;;;;;89.20;39.05;;;;;;;0.08;91.54;101024.69;4935690;28;20043;-69
2023/12/08 06:47:29;;;;;;;88.03;39.45;;;;;;;0.05;92.46;101035.50;4936093;28;20494;-69
2023/12/08 06:49:55;;;;;;;89.50;40.15;;;;;;;0.02;92.55;101021.41;4935532;28;20500;-70
2023/12/08 06:52:22;;;;;;;86.22;39.08;;;;;;;0.09;91.88;101021.09;4935934;28;20475;-69
2023/12/08 06:54:49;;;;;;;87.75;38.95;;;;;;;0.02;92.37;101024.94;4951486;28;20047;-69
2023/12/08 06:57:15;;;;;;;84.88;38.75;;;;;;;0.02;92.50;101034.72;4954665;28;20043;-69
2023/12/08 06:59:42;;;;;;;87.28;40.67;;;;;;;0.03;91.77;101037.38;4954276;28;20125;-70
2023/12/08 07:02:08;;;;;;;83.75;39.33;;;;;;;0.05;92.42;101040.81;4954545;28;20043;-70
2023/12/08 07:04:35;;;;;;;84.57;37.80;;;;;;;0.20;91.89;101043.78;4954623;28;20051;-70
2023/12/08 07:07:02;;;;;;;84.03;38.63;;;;;;;-0.01;91.83;101027.72;4954677;28;20077;-70
2023/12/08 07:09:28;;;;;;;84.15;38.80;;;;;;;-0.24;92.93;101022.44;4953241;28;20058;-70
2023/12/08 07:11:56;;;;;;;87.35;40.50;;;;;;;-0.05;93.21;101018.13;4954504;28;20106;-70
2023/12/08 07:14:24;;;;;;;87.32;39.20;;;;;;;0.07;91.95;101016.75;4954611;28;20464;-70
2023/12/08 07:16:51;;;;;;;91.72;39.92;;;;;;;0.06;91.94;101013.22;4954796;28;20041;-70
2023/12/08 07:19:18;;;;;;;88.20;40.53;;;;;;;0.10;91.37;101016.63;4954706;28;20472;-70
2023/12/08 07:21:45;;;;;;;90.80;38.22;;;;;;;0.26;90.62;101006.22;4954175;28;20051;-70
2023/12/08 07:24:12;;;;;;;84.07;39.08;;;;;;;0.05;90.92;100999.97;4954314;28;20093;-70
2023/12/08 07:26:38;;;;;;;80.47;37.17;;;;;;;-0.16;92.15;100988.38;4954248;28;20051;-70
2023/12/08 07:29:05;;;;;;;84.78;37.50;;;;;;;-0.01;91.73;101000.19;4954130;28;20471;-70
2023/12/08 07:31:32;;;;;;;84.13;38.53;;;;;;;-0.27;91.43;101002.09;4954212;28;20097;-70
2023/12/08 07:34:00;;;;;;;80.53;37.13;;;;;;;-0.27;91.61;101007.41;4953964;28;20043;-70
2023/12/08 07:36:27;;;;;;;85.45;37.72;;;;;;;-0.38;92.36;101003.44;4954200;28;20047;-70
2023/12/08 07:38:53;;;;;;;87.22;36.55;;;;;;;-0.16;91.72;100999.91;4953699;28;20074;-70
2023/12/08 07:41:20;;;;;;;83.22;38.30;;;;;;;-0.32;91.49;101003.22;4953597;28;20051;-70
2023/12/08 07:43:48;;;;;;;84.47;36.90;;;;;;;-0.10;90.34;100998.75;4951428;28;20420;-70
2023/12/08 07:46:14;;;;;;;81.82;37.17;;;;;;;-0.27;91.22;101002.09;4952617;28;20047;-70
2023/12/08 07:48:41;;;;;;;80.53;36.85;;;;;;;-0.28;91.39;100999.47;4952950;28;20059;-70
2023/12/08 07:51:09;;;;;;;84.13;38.25;;;;;;;-0.11;90.75;100994.38;4952053;28;20104;-70
2023/12/08 07:53:35;;;;;;;77.45;35.92;;;;;;;-0.27;90.38;100995.88;4945001;28;20050;-70
2023/12/08 07:56:02;;;;;;;76.03;35.30;;;;;;;-0.20;90.30;101005.38;4932778;28;20393;-70
2023/12/08 07:58:29;;;;;;;81.20;37.45;;;;;;;-0.06;90.21;101005.72;4932767;28;20047;-70
2023/12/08 08:00:55;;;;;;;82.32;35.85;;;;;;;-0.15;90.44;100998.09;4932434;28;20047;-70
2023/12/08 08:03:22;;;;;;;75.15;34.47;;;;;;;-0.40;90.60;100994.63;4933737;28;20074;-70
2023/12/08 08:05:49;;;;;;;70.05;34.90;;;;;;;-0.23;90.19;100986.84;4914271;29;20052;-70
2023/12/08 08:08:15;;;;;;;75.90;34.75;;;;;;;-0.35;90.34;100979.31;4913842;29;20055;-70
2023/12/08 08:10:42;;;;;;;74.32;35.47;;;;;;;-0.11;89.58;100986.38;4913143;29;20126;-70
2023/12/08 08:13:09;;;;;;;74.60;34.50;;;;;;;-0.04;89.25;100987.88;4913706;29;20047;-70
2023/12/08 08:15:35;;;;;;;80.47;35.45;;;;;;;0.06;88.22;100989.22;4913715;29;20059;-70
2023/12/08 08:18:02;;;;;;;70.95;34.58;;;;;;;-0.03;88.76;100983.41;4913540;29;20072;-70
2023/12/08 08:20:29;;;;;;;69.97;33.55;;;;;;;-0.34;89.03;100968.63;4913456;29;20127;-70
2023/12/08 08:22:56;;;;;;;69.93;33.60;;;;;;;-0.25;89.32;100968.28;4914197;29;20497;-70
2023/12/08 08:25:23;;;;;;;66.30;32.67;;;;;;;-0.17;89.19;100965.28;4914202;29;20044;-70
2023/12/08 08:27:53;;;;;;;69.97;32.80;;;;;;;-0.04;88.59;100966.53;4913217;29;20055;-70
2023/12/08 08:30:20;;;;;;;67.72;33.58;;;;;;;-0.05;87.17;100970.13;4914392;29;20177;-70
2023/12/08 08:32:47;;;;;;;66.50;34.15;;;;;;;-0.12;88.24;100983.75;4913092;29;20461;-70
2023/12/08 08:35:14;;;;;;;72.35;33.33;;;;;;;0.08;87.10;100981.16;4913538;29;20545;-70
2023/12/08 08:37:41;;;;;;;65.25;32.45;;;;;;;0.16;86.43;100988.84;4912739;29;20060;-70
2023/12/08 08:40:09;;;;;;;61.38;31.30;;;;;;;0.23;86.07;100991.22;4913121;29;20048;-70
2023/12/08 08:42:39;;;;;;;61.60;32.53;;;;;;;-0.11;87.76;100981.03;4913136;29;20055;-71
2023/12/08 08:45:07;;;;;;;61.03;31.67;;;;;;;-0.12;88.20;100965.97;4913179;29;20051;-70
2023/12/08 08:47:33;;;;;;;71.43;33.70;;;;;;;-0.25;88.44;100975.41;4913088;29;20097;-70
2023/12/08 08:50:00;;;;;;;62.17;31.20;;;;;;;0.17;86.85;100969.25;4912437;29;20051;-69
2023/12/08 08:52:28;;;;;;;59.67;29.20;;;;;;;0.16;86.57;100980.84;4913195;29;20079;-70
2023/12/08 08:54:54;;;;;;;65.25;31.02;;;;;;;0.13;86.25;100972.06;4926824;28;20099;-70
2023/12/08 08:57:21;;;;;;;54.10;28.55;;;;;;;0.21;86.06;100970.84;4933479;28;20492;-70
2023/12/08 08:59:47;;;;;;;59.75;29.73;;;;;;;0.31;85.29;100977.56;4932465;28;20385;-70
2023/12/08 09:02:15;;;;;;;58.78;29.65;;;;;;;0.03;85.90;100973.38;4930689;28;20143;-70
2023/12/08 09:04:41;;;;;;;55.33;29.00;;;;;;;0.21;86.13;100977.06;4931990;28;20055;-70
2023/12/08 09:07:08;;;;;;;59.88;28.50;;;;;;;0.20;85.36;100974.44;4930597;28;20051;-70
2023/12/08 09:09:35;;;;;;;58.65;28.98;;;;;;;0.33;85.36;100970.34;4931598;28;20099;-70
2023/12/08 09:12:22;;;;;;;56.00;27.15;;;;;;;0.60;83.29;100966.50;4931743;28;20051;-70
2023/12/08 09:14:49;;;;;;;59.47;28.50;;;;;;;0.54;83.73;100974.78;4931663;28;20043;-69
2023/12/08 09:17:16;;;;;;;52.03;27.08;;;;;;;0.64;83.71;100977.91;4931130;28;20058;-70
2023/12/08 09:19:42;;;;;;;52.47;27.10;;;;;;;0.56;83.25;100978.22;4931708;28;20149;-69
2023/12/08 09:22:10;;;;;;;55.80;27.08;;;;;;;0.59;82.59;100974.59;4931651;28;20401;-69
2023/12/08 09:24:37;;;;;;;54.10;27.60;;;;;;;0.77;81.64;100970.22;4932063;28;20056;-69
2023/12/08 09:27:04;;;;;;;47.97;26.13;;;;;;;0.80;81.50;100960.31;4930958;28;20107;-70
2023/12/08 09:29:31;;;;;;;50.72;26.42;;;;;;;0.92;80.86;100958.88;4932112;28;20501;-70
2023/12/08 09:31:57;;;;;;;48.35;25.40;;;;;;;0.80;81.92;100949.63;4932306;28;20052;-69
2023/12/08 09:34:24;;;;;;;48.13;25.02;;;;;;;0.70;81.56;100949.16;4932882;28;20083;-69
2023/12/08 09:36:51;;;;;;;46.70;25.02;;;;;;;0.89;81.21;100943.00;4932695;28;20051;-69
2023/12/08 09:39:38;;;;;;;45.72;23.15;;;;;;;0.58;82.01;100930.13;4932374;28;20078;-70
2023/12/08 09:42:43;;;;;;;54.33;26.55;;;;;;;0.75;82.33;100929.38;4930873;28;20055;-70
2023/12/08 09:45:10;;;;;;;48.05;24.90;;;;;;;0.47;82.80;100938.59;4910486;28;20051;-70
2023/12/08 09:47:41;;;;;;;52.58;25.52;;;;;;;0.69;82.40;100936.75;4931651;28;20496;-70
2023/12/08 09:50:12;;;;;;;48.10;25.30;;;;;;;0.74;82.15;100941.00;4932569;28;20431;-69
2023/12/08 09:52:40;;;;;;;47.88;25.20;;;;;;;0.67;82.73;100943.94;4932359;28;20420;-69
2023/12/08 09:55:07;;;;;;;52.08;24.27;;;;;;;0.84;81.51;100923.63;4914157;29;20108;-69
2023/12/08 09:57:34;;;;;;;53.95;26.20;;;;;;;0.92;80.90;100918.81;4914103;29;20052;-70
2023/12/08 10:00:17;;;;;;;46.00;24.30;;;;;;;0.90;81.53;100913.56;4913917;29;20064;-69
2023/12/08 10:02:44;;;;;;;49.72;25.70;;;;;;;0.69;81.40;100904.72;4913416;29;20044;-70
2023/12/08 10:05:11;;;;;;;47.05;23.45;;;;;;;0.61;82.09;100909.53;4911895;29;20497;-69
2023/12/08 10:07:40;;;;;;;52.67;26.85;;;;;;;0.48;82.25;100910.97;4913247;29;20132;-69
2023/12/08 10:10:09;;;;;;;47.38;23.25;;;;;;;0.45;82.85;100907.59;4913481;29;20109;-69
2023/12/08 10:12:37;;;;;;;50.58;25.45;;;;;;;0.59;82.39;100903.38;4912269;29;20048;-69
2023/12/08 10:15:09;;;;;;;48.83;26.25;;;;;;;0.62;82.02;100899.72;4913688;29;20055;-70
2023/12/08 10:17:48;;;;;;;47.92;25.70;;;;;;;0.64;81.88;100893.34;4915209;29;20516;-68
2023/12/08 10:20:19;;;;;;;51.20;26.30;;;;;;;0.76;82.69;100888.41;4916423;29;20138;-70
2023/12/08 10:22:48;;;;;;;57.35;27.33;;;;;;;0.69;81.29;100880.69;4916588;29;20055;-67
2023/12/08 10:25:18;;;;;;;51.17;26.27;;;;;;;0.88;80.37;100888.72;4920237;29;20044;-67
2023/12/08 10:27:50;;;;;;;48.67;24.48;;;;;;;0.80;80.66;100885.53;4920891;29;20044;-67
2023/12/08 10:30:18;;;;;;;53.20;24.70;;;;;;;0.63;81.14;100886.28;4920365;29;20156;-67
2023/12/08 10:32:45;;;;;;;62.47;27.10;;;;;;;0.57;81.66;100878.53;4918809;29;20528;-66
2023/12/08 10:35:13;;;;;;;56.28;26.42;;;;;;;0.59;81.97;100876.69;4919036;29;20040;-69
2023/12/08 10:37:41;;;;;;;49.90;25.85;;;;;;;0.40;82.39;100881.13;4916655;29;20059;-69
2023/12/08 10:40:10;;;;;;;44.78;23.70;;;;;;;0.18;82.84;100874.97;4917414;29;20056;-69
2023/12/08 10:42:36;;;;;;;47.00;25.65;;;;;;;0.33;82.65;100879.66;4917066;29;20052;-70
2023/12/08 10:45:10;;;;;;;49.60;26.08;;;;;;;0.49;82.29;100878.03;4917169;29;20048;-69
2023/12/08 10:47:39;;;;;;;53.25;25.40;;;;;;;0.47;83.06;100877.22;4915226;29;20048;-70
2023/12/08 10:50:10;;;;;;;48.28;24.50;;;;;;;0.41;82.36;100883.72;4931956;28;20044;-71
2023/12/08 10:52:38;;;;;;;46.10;25.52;;;;;;;0.49;82.73;100878.03;4935064;28;20048;-70
2023/12/08 10:55:06;;;;;;;42.97;22.00;;;;;;;0.26;82.04;100878.16;4934157;28;20052;-71
2023/12/08 10:57:34;;;;;;;46.40;24.30;;;;;;;0.45;83.00;100865.75;4935109;28;20055;-71
2023/12/08 11:00:11;;;;;;;46.03;24.50;;;;;;;0.68;81.24;100864.75;4934866;28;20122;-71
2023/12/08 11:02:40;;;;;;;46.80;25.05;;;;;;;0.55;81.95;100850.19;4934983;28;20512;-69
2023/12/08 11:05:10;;;;;;;44.92;23.48;;;;;;;0.21;82.36;100851.72;4934901;28;20058;-69
2023/12/08 11:07:42;;;;;;;46.97;24.10;;;;;;;0.01;83.03;100852.53;4934816;28;20098;-70
2023/12/08 11:10:11;;;;;;;41.97;23.40;;;;;;;-0.17;84.40;100861.31;4935094;28;20370;-71
2023/12/08 11:12:48;;;;;;;50.47;25.45;;;;;;;0.08;84.07;100854.00;4934669;28;20062;-72
2023/12/08 11:15:18;;;;;;;48.40;25.45;;;;;;;0.11;84.18;100859.22;4933777;28;20484;-71
2023/12/08 11:18:08;;;;;;;46.42;26.08;;;;;;;0.33;83.51;100866.31;4935159;28;20054;-71